sensor_id;sensor_type;location;lat;lon;timestamp;pressure;altitude;pressure_sealevel;temperature;humidity
66196;BME280;53000;45.182;5.736;2022-07-11T00:02:03;99324.25;;;26.12;39.18
66196;BME280;53000;45.182;5.736;2022-07-11T00:04:30;99327.53;;;26.09;38.90
66196;BME280;53000;45.182;5.736;2022-07-11T00:06:56;99322.56;;;26.06;39.18
66196;BME280;53000;45.182;5.736;2022-07-11T00:09:22;99326.16;;;26.06;38.84
66196;BME280;53000;45.182;5.736;2022-07-11T00:11:47;99328.94;;;26.06;39.24
66196;BME280;53000;45.182;5.736;2022-07-11T00:14:14;99326.13;;;26.01;38.68
66196;BME280;53000;45.182;5.736;2022-07-11T00:16:39;99334.72;;;25.95;39.04
66196;BME280;53000;45.182;5.736;2022-07-11T00:19:05;99322.97;;;25.87;39.12
66196;BME280;53000;45.182;5.736;2022-07-11T00:21:31;99326.28;;;25.84;39.17
66196;BME280;53000;45.182;5.736;2022-07-11T00:23:57;99330.69;;;25.80;39.02
66196;BME280;53000;45.182;5.736;2022-07-11T00:26:22;99330.94;;;25.74;40.10
66196;BME280;53000;45.182;5.736;2022-07-11T00:28:48;99339.50;;;25.67;39.55
66196;BME280;53000;45.182;5.736;2022-07-11T00:31:13;99337.25;;;25.64;39.62
66196;BME280;53000;45.182;5.736;2022-07-11T00:33:39;99331.69;;;25.64;39.25
66196;BME280;53000;45.182;5.736;2022-07-11T00:36:05;99339.75;;;25.65;39.56
66196;BME280;53000;45.182;5.736;2022-07-11T00:38:30;99335.88;;;25.66;39.89
66196;BME280;53000;45.182;5.736;2022-07-11T00:40:56;99338.38;;;25.68;39.73
66196;BME280;53000;45.182;5.736;2022-07-11T00:43:35;99331.44;;;25.65;39.65
66196;BME280;53000;45.182;5.736;2022-07-11T00:46:02;99339.44;;;25.62;39.80
66196;BME280;53000;45.182;5.736;2022-07-11T00:48:27;99336.97;;;25.60;39.92
66196;BME280;53000;45.182;5.736;2022-07-11T00:50:53;99341.41;;;25.61;39.81
66196;BME280;53000;45.182;5.736;2022-07-11T00:53:19;99343.09;;;25.62;39.79
66196;BME280;53000;45.182;5.736;2022-07-11T00:55:45;99340.81;;;25.59;39.95
66196;BME280;53000;45.182;5.736;2022-07-11T00:58:12;99340.56;;;25.61;39.87
66196;BME280;53000;45.182;5.736;2022-07-11T01:00:38;99339.44;;;25.62;39.70
66196;BME280;53000;45.182;5.736;2022-07-11T01:03:04;99333.91;;;25.62;39.75
66196;BME280;53000;45.182;5.736;2022-07-11T01:05:29;99341.41;;;25.66;39.69
66196;BME280;53000;45.182;5.736;2022-07-11T01:07:54;99332.00;;;25.67;39.69
66196;BME280;53000;45.182;5.736;2022-07-11T01:10:20;99337.81;;;25.66;39.64
66196;BME280;53000;45.182;5.736;2022-07-11T01:12:46;99338.09;;;25.64;39.83
66196;BME280;53000;45.182;5.736;2022-07-11T01:15:13;99329.47;;;25.61;39.95
66196;BME280;53000;45.182;5.736;2022-07-11T01:17:39;99337.72;;;25.50;40.14
66196;BME280;53000;45.182;5.736;2022-07-11T01:20:05;99329.06;;;25.42;40.35
66196;BME280;53000;45.182;5.736;2022-07-11T01:22:35;99333.47;;;25.38;40.15
66196;BME280;53000;45.182;5.736;2022-07-11T01:25:01;99323.50;;;25.37;40.31
66196;BME280;53000;45.182;5.736;2022-07-11T01:27:28;99332.63;;;25.37;40.57
66196;BME280;53000;45.182;5.736;2022-07-11T01:29:53;99334.59;;;25.37;40.22
66196;BME280;53000;45.182;5.736;2022-07-11T01:32:20;99332.91;;;25.36;40.70
66196;BME280;53000;45.182;5.736;2022-07-11T01:34:46;99331.25;;;25.35;40.61
66196;BME280;53000;45.182;5.736;2022-07-11T01:37:12;99339.25;;;25.31;40.75
66196;BME280;53000;45.182;5.736;2022-07-11T01:39:37;99334.25;;;25.28;41.36
66196;BME280;53000;45.182;5.736;2022-07-11T01:42:03;99334.19;;;25.23;41.33
66196;BME280;53000;45.182;5.736;2022-07-11T01:44:29;99339.38;;;25.19;40.84
66196;BME280;53000;45.182;5.736;2022-07-11T01:46:54;99345.19;;;25.18;41.15
66196;BME280;53000;45.182;5.736;2022-07-11T01:49:19;99347.66;;;25.14;40.79
66196;BME280;53000;45.182;5.736;2022-07-11T01:51:45;99347.91;;;25.13;40.92
66196;BME280;53000;45.182;5.736;2022-07-11T01:54:10;99352.09;;;25.15;41.26
66196;BME280;53000;45.182;5.736;2022-07-11T01:56:35;99352.94;;;25.16;41.51
66196;BME280;53000;45.182;5.736;2022-07-11T01:59:01;99357.31;;;25.12;41.68
66196;BME280;53000;45.182;5.736;2022-07-11T02:01:27;99360.88;;;25.07;41.71
66196;BME280;53000;45.182;5.736;2022-07-11T02:03:53;99367.50;;;25.06;41.57
66196;BME280;53000;45.182;5.736;2022-07-11T02:06:19;99351.94;;;25.00;42.00
66196;BME280;53000;45.182;5.736;2022-07-11T02:08:45;99362.75;;;25.01;41.76
66196;BME280;53000;45.182;5.736;2022-07-11T02:11:10;99356.41;;;25.01;41.77
66196;BME280;53000;45.182;5.736;2022-07-11T02:13:35;99363.59;;;25.02;41.66
66196;BME280;53000;45.182;5.736;2022-07-11T02:16:01;99358.34;;;25.00;42.21
66196;BME280;53000;45.182;5.736;2022-07-11T02:18:28;99348.34;;;24.99;41.87
66196;BME280;53000;45.182;5.736;2022-07-11T02:20:53;99356.66;;;24.99;41.99
66196;BME280;53000;45.182;5.736;2022-07-11T02:23:20;99358.84;;;24.97;42.09
66196;BME280;53000;45.182;5.736;2022-07-11T02:25:46;99364.06;;;24.94;42.29
66196;BME280;53000;45.182;5.736;2022-07-11T02:28:13;99359.88;;;24.91;42.71
66196;BME280;53000;45.182;5.736;2022-07-11T02:30:40;99363.44;;;24.86;42.52
66196;BME280;53000;45.182;5.736;2022-07-11T02:33:07;99355.94;;;24.82;42.24
66196;BME280;53000;45.182;5.736;2022-07-11T02:35:34;99358.38;;;24.78;42.56
66196;BME280;53000;45.182;5.736;2022-07-11T02:38:00;99360.84;;;24.75;42.86
66196;BME280;53000;45.182;5.736;2022-07-11T02:40:26;99357.75;;;24.71;42.99
66196;BME280;53000;45.182;5.736;2022-07-11T02:42:53;99357.97;;;24.64;43.31
66196;BME280;53000;45.182;5.736;2022-07-11T02:45:18;99349.88;;;24.58;43.33
66196;BME280;53000;45.182;5.736;2022-07-11T02:47:44;99362.31;;;24.55;43.27
66196;BME280;53000;45.182;5.736;2022-07-11T02:50:12;99358.38;;;24.51;43.41
66196;BME280;53000;45.182;5.736;2022-07-11T02:52:39;99352.28;;;24.49;43.62
66196;BME280;53000;45.182;5.736;2022-07-11T02:55:05;99349.50;;;24.49;43.64
66196;BME280;53000;45.182;5.736;2022-07-11T02:57:32;99353.31;;;24.48;43.52
66196;BME280;53000;45.182;5.736;2022-07-11T02:59:58;99355.78;;;24.44;43.44
66196;BME280;53000;45.182;5.736;2022-07-11T03:02:23;99347.66;;;24.38;43.36
66196;BME280;53000;45.182;5.736;2022-07-11T03:04:48;99351.28;;;24.38;43.37
66196;BME280;53000;45.182;5.736;2022-07-11T03:07:14;99346.50;;;24.34;43.45
66196;BME280;53000;45.182;5.736;2022-07-11T03:09:39;99341.50;;;24.31;42.71
66196;BME280;53000;45.182;5.736;2022-07-11T03:12:05;99350.91;;;24.29;43.89
66196;BME280;53000;45.182;5.736;2022-07-11T03:14:30;99334.75;;;24.21;43.64
66196;BME280;53000;45.182;5.736;2022-07-11T03:16:56;99353.38;;;24.31;43.70
66196;BME280;53000;45.182;5.736;2022-07-11T03:19:21;99348.13;;;24.29;43.76
66196;BME280;53000;45.182;5.736;2022-07-11T03:21:46;99354.75;;;24.28;43.60
66196;BME280;53000;45.182;5.736;2022-07-11T03:24:12;99353.91;;;24.28;43.75
66196;BME280;53000;45.182;5.736;2022-07-11T03:26:37;99352.75;;;24.24;43.52
66196;BME280;53000;45.182;5.736;2022-07-11T03:29:04;99358.03;;;24.25;43.71
66196;BME280;53000;45.182;5.736;2022-07-11T03:31:29;99353.00;;;24.22;43.74
66196;BME280;53000;45.182;5.736;2022-07-11T03:33:54;99349.34;;;24.17;44.03
66196;BME280;53000;45.182;5.736;2022-07-11T03:36:20;99355.91;;;24.11;44.35
66196;BME280;53000;45.182;5.736;2022-07-11T03:38:45;99357.28;;;24.08;44.25
66196;BME280;53000;45.182;5.736;2022-07-11T03:41:11;99363.63;;;24.08;43.53
66196;BME280;53000;45.182;5.736;2022-07-11T03:43:36;99354.50;;;24.08;44.32
66196;BME280;53000;45.182;5.736;2022-07-11T03:46:01;99366.63;;;24.07;43.66
66196;BME280;53000;45.182;5.736;2022-07-11T03:48:27;99363.72;;;23.97;44.41
66196;BME280;53000;45.182;5.736;2022-07-11T03:50:52;99367.03;;;23.94;44.45
66196;BME280;53000;45.182;5.736;2022-07-11T03:53:17;99365.84;;;23.90;45.34
66196;BME280;53000;45.182;5.736;2022-07-11T03:55:43;99365.84;;;23.90;45.08
66196;BME280;53000;45.182;5.736;2022-07-11T03:58:09;99371.88;;;23.86;44.66
66196;BME280;53000;45.182;5.736;2022-07-11T04:00:34;99365.50;;;23.86;44.93
66196;BME280;53000;45.182;5.736;2022-07-11T04:03:00;99366.28;;;23.81;45.06
66196;BME280;53000;45.182;5.736;2022-07-11T04:05:26;99376.00;;;23.84;44.37
66196;BME280;53000;45.182;5.736;2022-07-11T04:07:52;99369.63;;;23.83;44.90
66196;BME280;53000;45.182;5.736;2022-07-11T04:10:18;99372.06;;;23.80;45.38
66196;BME280;53000;45.182;5.736;2022-07-11T04:12:43;99376.16;;;23.77;45.20
66196;BME280;53000;45.182;5.736;2022-07-11T04:15:10;99369.56;;;23.78;45.19
66196;BME280;53000;45.182;5.736;2022-07-11T04:17:36;99367.06;;;23.77;45.17
66196;BME280;53000;45.182;5.736;2022-07-11T04:20:03;99370.53;;;23.72;45.21
66196;BME280;53000;45.182;5.736;2022-07-11T04:22:29;99371.56;;;23.66;45.52
66196;BME280;53000;45.182;5.736;2022-07-11T04:24:54;99377.44;;;23.70;45.20
66196;BME280;53000;45.182;5.736;2022-07-11T04:27:19;99385.97;;;23.68;45.88
66196;BME280;53000;45.182;5.736;2022-07-11T04:29:45;99375.56;;;23.58;46.01
66196;BME280;53000;45.182;5.736;2022-07-11T04:32:10;99382.09;;;23.52;46.02
66196;BME280;53000;45.182;5.736;2022-07-11T04:34:35;99382.28;;;23.45;45.49
66196;BME280;53000;45.182;5.736;2022-07-11T04:37:01;99380.50;;;23.39;45.91
66196;BME280;53000;45.182;5.736;2022-07-11T04:39:26;99394.44;;;23.44;45.87
66196;BME280;53000;45.182;5.736;2022-07-11T04:41:52;99394.78;;;23.48;45.94
66196;BME280;53000;45.182;5.736;2022-07-11T04:44:18;99399.53;;;23.53;45.85
66196;BME280;53000;45.182;5.736;2022-07-11T04:46:43;99401.44;;;23.52;45.80
66196;BME280;53000;45.182;5.736;2022-07-11T04:49:08;99404.13;;;23.47;46.14
66196;BME280;53000;45.182;5.736;2022-07-11T04:51:34;99396.69;;;23.47;45.88
66196;BME280;53000;45.182;5.736;2022-07-11T04:54:01;99404.97;;;23.47;45.56
66196;BME280;53000;45.182;5.736;2022-07-11T04:56:27;99411.91;;;23.50;45.50
66196;BME280;53000;45.182;5.736;2022-07-11T04:58:52;99412.75;;;23.51;45.81
66196;BME280;53000;45.182;5.736;2022-07-11T05:01:18;99411.41;;;23.53;45.87
66196;BME280;53000;45.182;5.736;2022-07-11T05:03:43;99413.34;;;23.53;45.50
66196;BME280;53000;45.182;5.736;2022-07-11T05:06:10;99420.19;;;23.50;45.47
66196;BME280;53000;45.182;5.736;2022-07-11T05:08:35;99430.69;;;23.48;45.16
66196;BME280;53000;45.182;5.736;2022-07-11T05:11:02;99423.63;;;23.40;45.82
66196;BME280;53000;45.182;5.736;2022-07-11T05:13:28;99428.22;;;23.35;46.06
66196;BME280;53000;45.182;5.736;2022-07-11T05:15:54;99427.97;;;23.36;46.02
66196;BME280;53000;45.182;5.736;2022-07-11T05:18:19;99432.75;;;23.41;45.74
66196;BME280;53000;45.182;5.736;2022-07-11T05:20:44;99425.31;;;23.41;45.83
66196;BME280;53000;45.182;5.736;2022-07-11T05:23:10;99417.28;;;23.40;46.32
66196;BME280;53000;45.182;5.736;2022-07-11T05:25:35;99423.63;;;23.40;46.61
66196;BME280;53000;45.182;5.736;2022-07-11T05:28:00;99422.66;;;23.46;46.19
66196;BME280;53000;45.182;5.736;2022-07-11T05:30:26;99426.22;;;23.47;46.17
66196;BME280;53000;45.182;5.736;2022-07-11T05:32:51;99423.81;;;23.51;45.51
66196;BME280;53000;45.182;5.736;2022-07-11T05:35:17;99430.25;;;23.56;46.12
66196;BME280;53000;45.182;5.736;2022-07-11T05:37:42;99431.19;;;23.62;45.96
66196;BME280;53000;45.182;5.736;2022-07-11T05:40:08;99436.94;;;23.60;45.49
66196;BME280;53000;45.182;5.736;2022-07-11T05:42:33;99438.06;;;23.59;46.01
66196;BME280;53000;45.182;5.736;2022-07-11T05:44:59;99439.72;;;23.60;45.77
66196;BME280;53000;45.182;5.736;2022-07-11T05:47:24;99431.41;;;23.60;46.11
66196;BME280;53000;45.182;5.736;2022-07-11T05:49:49;99441.66;;;23.60;45.50
66196;BME280;53000;45.182;5.736;2022-07-11T05:52:15;99447.75;;;23.62;45.53
66196;BME280;53000;45.182;5.736;2022-07-11T05:54:40;99445.81;;;23.62;45.72
66196;BME280;53000;45.182;5.736;2022-07-11T05:57:06;99448.59;;;23.62;44.86
66196;BME280;53000;45.182;5.736;2022-07-11T05:59:31;99444.91;;;23.57;44.21
66196;BME280;53000;45.182;5.736;2022-07-11T06:01:56;99444.06;;;23.56;44.47
66196;BME280;53000;45.182;5.736;2022-07-11T06:04:22;99446.34;;;23.59;44.46
66196;BME280;53000;45.182;5.736;2022-07-11T06:06:48;99440.66;;;23.66;43.87
66196;BME280;53000;45.182;5.736;2022-07-11T06:09:13;99442.31;;;23.67;44.15
66196;BME280;53000;45.182;5.736;2022-07-11T06:11:39;99450.78;;;23.77;43.92
66196;BME280;53000;45.182;5.736;2022-07-11T06:14:05;99451.22;;;23.86;43.23
66196;BME280;53000;45.182;5.736;2022-07-11T06:16:33;99455.16;;;23.90;42.66
66196;BME280;53000;45.182;5.736;2022-07-11T06:19:00;99444.44;;;23.94;42.18
66196;BME280;53000;45.182;5.736;2022-07-11T06:21:25;99445.84;;;23.96;41.72
66196;BME280;53000;45.182;5.736;2022-07-11T06:23:51;99448.59;;;23.96;41.32
66196;BME280;53000;45.182;5.736;2022-07-11T06:26:17;99450.59;;;24.01;41.71
66196;BME280;53000;45.182;5.736;2022-07-11T06:28:42;99454.53;;;24.05;41.36
66196;BME280;53000;45.182;5.736;2022-07-11T06:31:08;99448.53;;;24.08;41.33
66196;BME280;53000;45.182;5.736;2022-07-11T06:33:34;99446.66;;;24.14;41.70
66196;BME280;53000;45.182;5.736;2022-07-11T06:36:00;99441.94;;;24.14;41.20
66196;BME280;53000;45.182;5.736;2022-07-11T06:38:26;99447.03;;;24.22;41.59
66196;BME280;53000;45.182;5.736;2022-07-11T06:40:52;99447.03;;;24.22;41.32
66196;BME280;53000;45.182;5.736;2022-07-11T06:43:18;99457.88;;;24.24;41.28
66196;BME280;53000;45.182;5.736;2022-07-11T06:45:44;99443.50;;;24.27;41.28
66196;BME280;53000;45.182;5.736;2022-07-11T06:48:09;99453.88;;;24.37;40.66
66196;BME280;53000;45.182;5.736;2022-07-11T06:50:35;99448.34;;;24.37;40.18
66196;BME280;53000;45.182;5.736;2022-07-11T06:53:02;99445.06;;;24.40;40.44
66196;BME280;53000;45.182;5.736;2022-07-11T06:55:27;99455.88;;;24.41;40.34
66196;BME280;53000;45.182;5.736;2022-07-11T06:57:53;99451.19;;;24.42;40.23
66196;BME280;53000;45.182;5.736;2022-07-11T07:00:18;99449.84;;;24.44;40.59
66196;BME280;53000;45.182;5.736;2022-07-11T07:02:44;99446.34;;;24.49;40.08
66196;BME280;53000;45.182;5.736;2022-07-11T07:05:10;99456.97;;;24.57;40.58
66196;BME280;53000;45.182;5.736;2022-07-11T07:07:35;99453.69;;;24.60;39.86
66196;BME280;53000;45.182;5.736;2022-07-11T07:10:01;99452.31;;;24.63;40.34
66196;BME280;53000;45.182;5.736;2022-07-11T07:12:26;99453.22;;;24.68;39.75
66196;BME280;53000;45.182;5.736;2022-07-11T07:14:52;99453.94;;;24.81;40.07
66196;BME280;53000;45.182;5.736;2022-07-11T07:17:17;99460.69;;;24.90;39.78
66196;BME280;53000;45.182;5.736;2022-07-11T07:19:44;99459.94;;;25.00;39.87
66196;BME280;53000;45.182;5.736;2022-07-11T07:22:09;99454.47;;;25.05;39.22
66196;BME280;53000;45.182;5.736;2022-07-11T07:24:35;99463.09;;;25.08;38.67
66196;BME280;53000;45.182;5.736;2022-07-11T07:27:04;99460.97;;;25.16;39.11
66196;BME280;53000;45.182;5.736;2022-07-11T07:29:30;99453.88;;;25.25;38.79
66196;BME280;53000;45.182;5.736;2022-07-11T07:31:56;99439.44;;;25.50;38.98
66196;BME280;53000;45.182;5.736;2022-07-11T07:34:21;99443.09;;;26.99;36.95
66196;BME280;53000;45.182;5.736;2022-07-11T07:36:47;99447.78;;;28.67;35.83
66196;BME280;53000;45.182;5.736;2022-07-11T07:39:12;99442.78;;;30.51;32.87
66196;BME280;53000;45.182;5.736;2022-07-11T07:41:38;99441.69;;;32.18;30.23
66196;BME280;53000;45.182;5.736;2022-07-11T07:44:03;99442.66;;;33.33;27.98
66196;BME280;53000;45.182;5.736;2022-07-11T07:46:29;99447.25;;;34.19;26.94
66196;BME280;53000;45.182;5.736;2022-07-11T07:48:54;99446.22;;;34.77;25.87
66196;BME280;53000;45.182;5.736;2022-07-11T07:51:20;99449.94;;;35.30;25.13
66196;BME280;53000;45.182;5.736;2022-07-11T07:53:46;99443.75;;;36.07;23.22
66196;BME280;53000;45.182;5.736;2022-07-11T07:56:12;99442.00;;;36.79;23.50
66196;BME280;53000;45.182;5.736;2022-07-11T07:58:37;99449.16;;;37.27;22.74
66196;BME280;53000;45.182;5.736;2022-07-11T08:01:03;99441.91;;;37.80;23.41
66196;BME280;53000;45.182;5.736;2022-07-11T08:03:48;99443.81;;;38.46;21.18
66196;BME280;53000;45.182;5.736;2022-07-11T08:06:13;99442.91;;;38.79;19.51
66196;BME280;53000;45.182;5.736;2022-07-11T08:08:38;99445.00;;;39.07;19.82
66196;BME280;53000;45.182;5.736;2022-07-11T08:11:04;99436.94;;;39.34;21.08
66196;BME280;53000;45.182;5.736;2022-07-11T08:13:29;99430.78;;;39.72;20.78
66196;BME280;53000;45.182;5.736;2022-07-11T08:15:55;99423.56;;;40.19;20.54
66196;BME280;53000;45.182;5.736;2022-07-11T08:18:20;99420.81;;;40.70;20.82
66196;BME280;53000;45.182;5.736;2022-07-11T08:20:46;99410.72;;;41.24;20.41
66196;BME280;53000;45.182;5.736;2022-07-11T08:23:11;99419.56;;;41.58;19.47
66196;BME280;53000;45.182;5.736;2022-07-11T08:25:38;99411.88;;;41.58;18.31
66196;BME280;53000;45.182;5.736;2022-07-11T08:28:03;99407.38;;;41.38;18.05
66196;BME280;53000;45.182;5.736;2022-07-11T08:30:29;99408.78;;;41.47;17.42
66196;BME280;53000;45.182;5.736;2022-07-11T08:32:54;99411.03;;;41.38;17.21
66196;BME280;53000;45.182;5.736;2022-07-11T08:35:19;99400.44;;;41.16;18.12
66196;BME280;53000;45.182;5.736;2022-07-11T08:37:45;99401.50;;;41.11;18.65
66196;BME280;53000;45.182;5.736;2022-07-11T08:40:11;99402.06;;;41.17;18.41
66196;BME280;53000;45.182;5.736;2022-07-11T08:42:42;99402.59;;;41.06;19.07
66196;BME280;53000;45.182;5.736;2022-07-11T08:45:13;99393.50;;;40.46;19.65
66196;BME280;53000;45.182;5.736;2022-07-11T08:47:40;99399.66;;;39.88;19.59
66196;BME280;53000;45.182;5.736;2022-07-11T08:50:07;99384.38;;;39.77;18.78
66196;BME280;53000;45.182;5.736;2022-07-11T08:52:33;99383.03;;;39.58;19.59
66196;BME280;53000;45.182;5.736;2022-07-11T08:54:59;99378.63;;;39.45;18.40
66196;BME280;53000;45.182;5.736;2022-07-11T08:57:24;99373.94;;;39.24;19.55
66196;BME280;53000;45.182;5.736;2022-07-11T08:59:54;99377.97;;;39.23;20.40
66196;BME280;53000;45.182;5.736;2022-07-11T09:02:20;99369.56;;;39.39;19.19
66196;BME280;53000;45.182;5.736;2022-07-11T09:04:46;99376.06;;;39.28;19.12
66196;BME280;53000;45.182;5.736;2022-07-11T09:07:12;99381.78;;;39.15;20.08
66196;BME280;53000;45.182;5.736;2022-07-11T09:09:37;99368.13;;;39.05;20.24
66196;BME280;53000;45.182;5.736;2022-07-11T09:12:10;99366.50;;;39.04;20.18
66196;BME280;53000;45.182;5.736;2022-07-11T09:14:35;99365.97;;;39.14;20.53
66196;BME280;53000;45.182;5.736;2022-07-11T09:17:03;99355.78;;;39.25;19.92
66196;BME280;53000;45.182;5.736;2022-07-11T09:19:32;99357.19;;;39.32;20.61
66196;BME280;53000;45.182;5.736;2022-07-11T09:24:56;99357.09;;;39.56;18.78
66196;BME280;53000;45.182;5.736;2022-07-11T09:30:29;99350.69;;;39.31;19.67
66196;BME280;53000;45.182;5.736;2022-07-11T09:32:57;99358.09;;;39.08;19.42
66196;BME280;53000;45.182;5.736;2022-07-11T09:35:25;99349.97;;;38.94;20.11
66196;BME280;53000;45.182;5.736;2022-07-11T09:37:51;99345.66;;;38.72;19.60
66196;BME280;53000;45.182;5.736;2022-07-11T09:40:17;99341.66;;;38.60;18.91
66196;BME280;53000;45.182;5.736;2022-07-11T09:42:50;99347.44;;;38.52;20.25
66196;BME280;53000;45.182;5.736;2022-07-11T09:45:18;99347.31;;;38.36;19.79
66196;BME280;53000;45.182;5.736;2022-07-11T09:47:47;99339.63;;;37.99;20.73
66196;BME280;53000;45.182;5.736;2022-07-11T09:50:21;99335.34;;;37.81;20.70
66196;BME280;53000;45.182;5.736;2022-07-11T09:53:10;99342.19;;;37.47;20.43
66196;BME280;53000;45.182;5.736;2022-07-11T09:55:45;99334.59;;;37.05;21.74
66196;BME280;53000;45.182;5.736;2022-07-11T09:58:15;99336.88;;;36.91;21.30
66196;BME280;53000;45.182;5.736;2022-07-11T10:00:42;99327.81;;;36.85;21.93
66196;BME280;53000;45.182;5.736;2022-07-11T10:03:10;99327.41;;;36.74;21.51
66196;BME280;53000;45.182;5.736;2022-07-11T10:05:37;99329.47;;;36.56;21.45
66196;BME280;53000;45.182;5.736;2022-07-11T10:08:03;99322.75;;;36.40;21.39
66196;BME280;53000;45.182;5.736;2022-07-11T10:10:32;99317.72;;;36.24;22.31
66196;BME280;53000;45.182;5.736;2022-07-11T10:12:58;99316.91;;;36.24;22.00
66196;BME280;53000;45.182;5.736;2022-07-11T10:15:35;99314.94;;;36.16;22.38
66196;BME280;53000;45.182;5.736;2022-07-11T10:28:26;99315.34;;;35.97;23.57
66196;BME280;53000;45.182;5.736;2022-07-11T10:30:55;99307.09;;;35.92;23.27
66196;BME280;53000;45.182;5.736;2022-07-11T10:33:22;99299.00;;;35.81;23.81
66196;BME280;53000;45.182;5.736;2022-07-11T10:35:49;99297.22;;;35.77;24.18
66196;BME280;53000;45.182;5.736;2022-07-11T10:38:15;99297.22;;;35.77;24.00
66196;BME280;53000;45.182;5.736;2022-07-11T10:43:35;99289.72;;;35.81;23.01
66196;BME280;53000;45.182;5.736;2022-07-11T10:46:09;99290.94;;;35.62;24.05
66196;BME280;53000;45.182;5.736;2022-07-11T10:48:52;99288.34;;;35.49;24.46
66196;BME280;53000;45.182;5.736;2022-07-11T10:51:28;99284.06;;;35.34;24.25
66196;BME280;53000;45.182;5.736;2022-07-11T10:59:14;99277.63;;;35.25;24.56
66196;BME280;53000;45.182;5.736;2022-07-11T11:02:02;99265.22;;;35.26;24.27
66196;BME280;53000;45.182;5.736;2022-07-11T11:04:48;99268.69;;;35.22;24.71
66196;BME280;53000;45.182;5.736;2022-07-11T11:07:34;99268.22;;;35.20;24.73
66196;BME280;53000;45.182;5.736;2022-07-11T11:10:43;99256.47;;;35.18;25.42
66196;BME280;53000;45.182;5.736;2022-07-11T11:15:43;99256.78;;;35.17;24.36
66196;BME280;53000;45.182;5.736;2022-07-11T11:20:47;99254.28;;;35.07;24.81
66196;BME280;53000;45.182;5.736;2022-07-11T11:26:12;99255.31;;;34.93;25.24
66196;BME280;53000;45.182;5.736;2022-07-11T11:28:55;99251.34;;;34.94;25.64
66196;BME280;53000;45.182;5.736;2022-07-11T11:31:20;99243.72;;;34.95;25.95
66196;BME280;53000;45.182;5.736;2022-07-11T11:33:46;99245.03;;;34.97;26.10
66196;BME280;53000;45.182;5.736;2022-07-11T11:36:15;99241.56;;;35.00;25.29
66196;BME280;53000;45.182;5.736;2022-07-11T11:38:42;99237.28;;;35.03;25.47
66196;BME280;53000;45.182;5.736;2022-07-11T11:41:08;99236.41;;;35.02;25.36
66196;BME280;53000;45.182;5.736;2022-07-11T11:43:37;99240.25;;;34.98;25.27
66196;BME280;53000;45.182;5.736;2022-07-11T11:46:04;99235.28;;;34.95;25.58
66196;BME280;53000;45.182;5.736;2022-07-11T11:48:32;99226.03;;;34.94;26.32
66196;BME280;53000;45.182;5.736;2022-07-11T11:51:16;99226.69;;;34.91;26.02
66196;BME280;53000;45.182;5.736;2022-07-11T11:53:45;99221.88;;;34.92;25.82
66196;BME280;53000;45.182;5.736;2022-07-11T11:56:14;99217.25;;;34.87;25.26
66196;BME280;53000;45.182;5.736;2022-07-11T11:58:44;99225.38;;;34.89;25.57
66196;BME280;53000;45.182;5.736;2022-07-11T12:01:14;99220.88;;;34.96;25.25
66196;BME280;53000;45.182;5.736;2022-07-11T12:03:58;99224.03;;;34.95;26.20
66196;BME280;53000;45.182;5.736;2022-07-11T12:06:26;99213.59;;;34.95;25.83
66196;BME280;53000;45.182;5.736;2022-07-11T12:08:58;99225.16;;;35.02;26.78
66196;BME280;53000;45.182;5.736;2022-07-11T12:11:23;99222.53;;;35.06;25.66
66196;BME280;53000;45.182;5.736;2022-07-11T12:13:55;99223.50;;;35.10;26.04
66196;BME280;53000;45.182;5.736;2022-07-11T12:16:21;99220.38;;;35.03;25.96
66196;BME280;53000;45.182;5.736;2022-07-11T12:19:09;99218.22;;;35.09;26.21
66196;BME280;53000;45.182;5.736;2022-07-11T12:21:35;99216.56;;;35.16;26.39
66196;BME280;53000;45.182;5.736;2022-07-11T12:24:04;99221.69;;;35.23;26.06
66196;BME280;53000;45.182;5.736;2022-07-11T12:26:33;99213.25;;;35.23;26.63
66196;BME280;53000;45.182;5.736;2022-07-11T12:29:12;99213.25;;;35.23;25.85
66196;BME280;53000;45.182;5.736;2022-07-11T12:31:58;99213.25;;;35.23;26.29
66196;BME280;53000;45.182;5.736;2022-07-11T12:37:08;99210.59;;;35.27;26.46
66196;BME280;53000;45.182;5.736;2022-07-11T12:39:37;99204.44;;;35.33;25.97
66196;BME280;53000;45.182;5.736;2022-07-11T12:42:30;99202.66;;;35.29;25.75
66196;BME280;53000;45.182;5.736;2022-07-11T12:45:08;99213.09;;;35.19;26.26
66196;BME280;53000;45.182;5.736;2022-07-11T12:47:37;99200.34;;;35.13;26.26
66196;BME280;53000;45.182;5.736;2022-07-11T12:50:17;99204.84;;;35.14;25.94
66196;BME280;53000;45.182;5.736;2022-07-11T12:52:45;99194.06;;;35.08;26.10
66196;BME280;53000;45.182;5.736;2022-07-11T12:55:20;99201.53;;;34.95;26.11
66196;BME280;53000;45.182;5.736;2022-07-11T12:58:10;99190.28;;;34.95;26.48
66196;BME280;53000;45.182;5.736;2022-07-11T13:00:37;99186.31;;;34.96;26.46
66196;BME280;53000;45.182;5.736;2022-07-11T13:03:05;99184.81;;;34.98;26.85
66196;BME280;53000;45.182;5.736;2022-07-11T13:05:50;99198.19;;;35.10;26.14
66196;BME280;53000;45.182;5.736;2022-07-11T13:08:44;99193.88;;;35.21;26.23
66196;BME280;53000;45.182;5.736;2022-07-11T13:11:18;99194.53;;;35.27;25.85
66196;BME280;53000;45.182;5.736;2022-07-11T13:13:49;99191.03;;;35.30;26.48
66196;BME280;53000;45.182;5.736;2022-07-11T13:16:17;99191.00;;;35.39;26.31
66196;BME280;53000;45.182;5.736;2022-07-11T13:18:43;99185.53;;;35.42;26.05
66196;BME280;53000;45.182;5.736;2022-07-11T13:21:09;99188.00;;;35.44;26.04
66196;BME280;53000;45.182;5.736;2022-07-11T13:23:35;99188.50;;;35.46;25.86
66196;BME280;53000;45.182;5.736;2022-07-11T13:26:00;99191.97;;;35.43;26.06
66196;BME280;53000;45.182;5.736;2022-07-11T13:28:26;99192.47;;;35.45;26.03
66196;BME280;53000;45.182;5.736;2022-07-11T13:30:52;99195.09;;;35.50;26.27
66196;BME280;53000;45.182;5.736;2022-07-11T13:33:18;99187.47;;;35.51;25.52
66196;BME280;53000;45.182;5.736;2022-07-11T13:35:44;99189.31;;;35.47;25.84
66196;BME280;53000;45.182;5.736;2022-07-11T13:38:11;99184.03;;;35.45;25.89